sensor_id;sensor_type;location;lat;lon;timestamp;P1;durP1;ratioP1;P2;durP2;ratioP2
8881;SDS011;4477;48.736;9.176;2023-03-14T00:01:25;1.37;;;0.87;;
8881;SDS011;4477;48.736;9.176;2023-03-14T00:03:52;0.70;;;0.70;;
8881;SDS011;4477;48.736;9.176;2023-03-14T00:06:21;2.07;;;0.80;;
8881;SDS011;4477;48.736;9.176;2023-03-14T00:08:48;1.17;;;1.07;;
8881;SDS011;4477;48.736;9.176;2023-03-14T00:11:17;0.80;;;0.73;;
8881;SDS011;4477;48.736;9.176;2023-03-14T00:13:46;1.43;;;0.70;;
8881;SDS011;4477;48.736;9.176;2023-03-14T00:16:13;1.00;;;0.90;;
8881;SDS011;4477;48.736;9.176;2023-03-14T00:18:40;1.67;;;0.97;;
8881;SDS011;4477;48.736;9.176;2023-03-14T00:21:08;1.10;;;1.00;;
8881;SDS011;4477;48.736;9.176;2023-03-14T00:23:37;2.53;;;1.00;;
8881;SDS011;4477;48.736;9.176;2023-03-14T00:26:06;0.90;;;0.90;;
8881;SDS011;4477;48.736;9.176;2023-03-14T00:28:33;1.23;;;1.13;;
8881;SDS011;4477;48.736;9.176;2023-03-14T00:31:01;1.73;;;0.90;;
8881;SDS011;4477;48.736;9.176;2023-03-14T00:33:29;2.20;;;1.07;;
8881;SDS011;4477;48.736;9.176;2023-03-14T00:35:56;2.23;;;1.00;;
8881;SDS011;4477;48.736;9.176;2023-03-14T00:38:24;1.20;;;0.90;;
8881;SDS011;4477;48.736;9.176;2023-03-14T00:40:53;1.90;;;1.10;;
8881;SDS011;4477;48.736;9.176;2023-03-14T00:43:20;1.00;;;1.00;;
8881;SDS011;4477;48.736;9.176;2023-03-14T00:45:48;1.77;;;0.93;;
8881;SDS011;4477;48.736;9.176;2023-03-14T00:48:15;1.10;;;0.83;;
8881;SDS011;4477;48.736;9.176;2023-03-14T00:50:42;1.10;;;0.93;;
8881;SDS011;4477;48.736;9.176;2023-03-14T00:53:09;1.30;;;0.90;;
8881;SDS011;4477;48.736;9.176;2023-03-14T00:55:36;1.47;;;0.80;;
8881;SDS011;4477;48.736;9.176;2023-03-14T00:58:05;1.17;;;0.87;;
8881;SDS011;4477;48.736;9.176;2023-03-14T01:00:32;0.60;;;0.60;;
8881;SDS011;4477;48.736;9.176;2023-03-14T01:03:00;0.90;;;0.80;;
8881;SDS011;4477;48.736;9.176;2023-03-14T01:05:27;0.70;;;0.70;;
8881;SDS011;4477;48.736;9.176;2023-03-14T01:07:54;0.90;;;0.70;;
8881;SDS011;4477;48.736;9.176;2023-03-14T01:10:22;1.33;;;0.60;;
8881;SDS011;4477;48.736;9.176;2023-03-14T01:12:49;1.40;;;0.60;;
8881;SDS011;4477;48.736;9.176;2023-03-14T01:15:18;0.70;;;0.70;;
8881;SDS011;4477;48.736;9.176;2023-03-14T01:17:45;1.57;;;0.70;;
8881;SDS011;4477;48.736;9.176;2023-03-14T01:20:12;0.67;;;0.67;;
8881;SDS011;4477;48.736;9.176;2023-03-14T01:22:40;1.40;;;0.70;;
8881;SDS011;4477;48.736;9.176;2023-03-14T01:25:08;1.43;;;0.70;;
8881;SDS011;4477;48.736;9.176;2023-03-14T01:27:35;0.60;;;0.43;;
8881;SDS011;4477;48.736;9.176;2023-03-14T01:30:03;1.30;;;0.70;;
8881;SDS011;4477;48.736;9.176;2023-03-14T01:32:31;1.33;;;0.60;;
8881;SDS011;4477;48.736;9.176;2023-03-14T01:34:58;0.80;;;0.50;;
8881;SDS011;4477;48.736;9.176;2023-03-14T01:37:25;1.10;;;0.80;;
8881;SDS011;4477;48.736;9.176;2023-03-14T01:39:53;3.23;;;0.50;;
8881;SDS011;4477;48.736;9.176;2023-03-14T01:42:20;0.63;;;0.60;;
8881;SDS011;4477;48.736;9.176;2023-03-14T01:44:50;0.80;;;0.70;;
8881;SDS011;4477;48.736;9.176;2023-03-14T01:47:18;0.47;;;0.40;;
8881;SDS011;4477;48.736;9.176;2023-03-14T01:49:46;0.80;;;0.63;;
8881;SDS011;4477;48.736;9.176;2023-03-14T01:52:15;1.00;;;0.50;;
8881;SDS011;4477;48.736;9.176;2023-03-14T01:54:44;0.80;;;0.50;;
8881;SDS011;4477;48.736;9.176;2023-03-14T01:57:25;1.63;;;0.70;;
8881;SDS011;4477;48.736;9.176;2023-03-14T01:59:55;1.60;;;0.60;;
8881;SDS011;4477;48.736;9.176;2023-03-14T02:02:24;1.13;;;0.60;;
8881;SDS011;4477;48.736;9.176;2023-03-14T02:04:54;0.70;;;0.60;;
8881;SDS011;4477;48.736;9.176;2023-03-14T02:07:22;1.43;;;0.50;;
8881;SDS011;4477;48.736;9.176;2023-03-14T02:09:50;0.67;;;0.60;;
8881;SDS011;4477;48.736;9.176;2023-03-14T02:12:18;3.27;;;0.80;;
8881;SDS011;4477;48.736;9.176;2023-03-14T02:14:46;0.80;;;0.60;;
8881;SDS011;4477;48.736;9.176;2023-03-14T02:17:13;1.60;;;0.60;;
8881;SDS011;4477;48.736;9.176;2023-03-14T02:19:48;0.97;;;0.50;;
8881;SDS011;4477;48.736;9.176;2023-03-14T02:22:18;0.60;;;0.60;;
8881;SDS011;4477;48.736;9.176;2023-03-14T02:24:46;0.50;;;0.50;;
8881;SDS011;4477;48.736;9.176;2023-03-14T02:27:17;2.00;;;0.43;;
8881;SDS011;4477;48.736;9.176;2023-03-14T02:29:47;0.70;;;0.50;;
8881;SDS011;4477;48.736;9.176;2023-03-14T02:32:15;1.30;;;0.57;;
8881;SDS011;4477;48.736;9.176;2023-03-14T02:34:43;0.70;;;0.50;;
8881;SDS011;4477;48.736;9.176;2023-03-14T02:37:11;1.17;;;0.60;;
8881;SDS011;4477;48.736;9.176;2023-03-14T02:39:40;0.47;;;0.43;;
8881;SDS011;4477;48.736;9.176;2023-03-14T02:42:09;0.93;;;0.60;;
8881;SDS011;4477;48.736;9.176;2023-03-14T02:44:47;1.53;;;0.63;;
8881;SDS011;4477;48.736;9.176;2023-03-14T02:47:14;0.40;;;0.40;;
8881;SDS011;4477;48.736;9.176;2023-03-14T02:49:44;1.00;;;0.53;;
8881;SDS011;4477;48.736;9.176;2023-03-14T02:52:11;0.97;;;0.50;;
8881;SDS011;4477;48.736;9.176;2023-03-14T02:54:38;0.50;;;0.40;;
8881;SDS011;4477;48.736;9.176;2023-03-14T02:57:05;1.13;;;0.60;;
8881;SDS011;4477;48.736;9.176;2023-03-14T02:59:32;0.67;;;0.50;;
8881;SDS011;4477;48.736;9.176;2023-03-14T03:02:00;1.47;;;0.50;;
8881;SDS011;4477;48.736;9.176;2023-03-14T03:04:28;0.70;;;0.50;;
8881;SDS011;4477;48.736;9.176;2023-03-14T03:06:55;1.97;;;0.60;;
8881;SDS011;4477;48.736;9.176;2023-03-14T03:09:22;1.00;;;0.60;;
8881;SDS011;4477;48.736;9.176;2023-03-14T03:11:49;1.60;;;0.63;;
8881;SDS011;4477;48.736;9.176;2023-03-14T03:14:16;0.57;;;0.50;;
8881;SDS011;4477;48.736;9.176;2023-03-14T03:16:43;1.43;;;0.50;;
8881;SDS011;4477;48.736;9.176;2023-03-14T03:19:12;1.63;;;0.80;;
8881;SDS011;4477;48.736;9.176;2023-03-14T03:21:40;0.60;;;0.60;;
8881;SDS011;4477;48.736;9.176;2023-03-14T03:24:08;1.20;;;0.67;;
8881;SDS011;4477;48.736;9.176;2023-03-14T03:26:35;1.20;;;0.63;;
8881;SDS011;4477;48.736;9.176;2023-03-14T03:29:02;1.70;;;0.73;;
8881;SDS011;4477;48.736;9.176;2023-03-14T03:31:29;1.60;;;0.67;;
8881;SDS011;4477;48.736;9.176;2023-03-14T03:33:56;3.20;;;0.70;;
8881;SDS011;4477;48.736;9.176;2023-03-14T03:36:25;1.90;;;0.73;;
8881;SDS011;4477;48.736;9.176;2023-03-14T03:38:52;2.17;;;1.00;;
8881;SDS011;4477;48.736;9.176;2023-03-14T03:41:19;2.57;;;1.03;;
8881;SDS011;4477;48.736;9.176;2023-03-14T03:43:46;3.60;;;1.00;;
8881;SDS011;4477;48.736;9.176;2023-03-14T03:46:14;2.43;;;0.93;;
8881;SDS011;4477;48.736;9.176;2023-03-14T03:48:41;2.83;;;0.80;;
8881;SDS011;4477;48.736;9.176;2023-03-14T03:51:10;1.37;;;0.80;;
8881;SDS011;4477;48.736;9.176;2023-03-14T03:53:40;1.10;;;0.73;;
8881;SDS011;4477;48.736;9.176;2023-03-14T03:56:07;4.80;;;1.20;;
8881;SDS011;4477;48.736;9.176;2023-03-14T03:58:35;2.60;;;1.00;;
8881;SDS011;4477;48.736;9.176;2023-03-14T04:01:04;7.20;;;1.20;;
8881;SDS011;4477;48.736;9.176;2023-03-14T04:03:31;1.90;;;0.80;;
8881;SDS011;4477;48.736;9.176;2023-03-14T04:05:58;3.77;;;1.00;;
8881;SDS011;4477;48.736;9.176;2023-03-14T04:08:25;2.30;;;0.97;;
8881;SDS011;4477;48.736;9.176;2023-03-14T04:10:55;1.53;;;0.83;;
8881;SDS011;4477;48.736;9.176;2023-03-14T04:13:22;2.93;;;0.90;;
8881;SDS011;4477;48.736;9.176;2023-03-14T04:15:49;2.30;;;1.00;;
8881;SDS011;4477;48.736;9.176;2023-03-14T04:18:16;3.63;;;1.20;;
8881;SDS011;4477;48.736;9.176;2023-03-14T04:20:43;3.70;;;0.90;;
8881;SDS011;4477;48.736;9.176;2023-03-14T04:23:11;3.03;;;1.20;;
8881;SDS011;4477;48.736;9.176;2023-03-14T04:25:38;4.17;;;1.10;;
8881;SDS011;4477;48.736;9.176;2023-03-14T04:28:06;2.53;;;0.93;;
8881;SDS011;4477;48.736;9.176;2023-03-14T04:30:34;1.67;;;1.00;;
8881;SDS011;4477;48.736;9.176;2023-03-14T04:33:01;3.83;;;1.07;;
8881;SDS011;4477;48.736;9.176;2023-03-14T04:35:29;4.37;;;1.07;;
8881;SDS011;4477;48.736;9.176;2023-03-14T04:37:57;2.53;;;1.10;;
8881;SDS011;4477;48.736;9.176;2023-03-14T04:40:24;3.50;;;1.30;;
8881;SDS011;4477;48.736;9.176;2023-03-14T04:42:51;5.13;;;1.30;;
8881;SDS011;4477;48.736;9.176;2023-03-14T04:45:20;3.90;;;0.87;;
8881;SDS011;4477;48.736;9.176;2023-03-14T04:47:47;4.77;;;1.23;;
8881;SDS011;4477;48.736;9.176;2023-03-14T04:50:14;4.43;;;1.17;;
8881;SDS011;4477;48.736;9.176;2023-03-14T04:52:41;2.63;;;0.93;;
8881;SDS011;4477;48.736;9.176;2023-03-14T04:55:08;3.33;;;1.07;;
8881;SDS011;4477;48.736;9.176;2023-03-14T04:57:35;2.90;;;0.87;;
8881;SDS011;4477;48.736;9.176;2023-03-14T05:00:03;4.00;;;0.93;;
8881;SDS011;4477;48.736;9.176;2023-03-14T05:02:34;3.87;;;0.80;;
8881;SDS011;4477;48.736;9.176;2023-03-14T05:05:01;3.43;;;0.90;;
8881;SDS011;4477;48.736;9.176;2023-03-14T05:07:28;3.43;;;1.00;;
8881;SDS011;4477;48.736;9.176;2023-03-14T05:09:55;3.67;;;1.30;;
8881;SDS011;4477;48.736;9.176;2023-03-14T05:12:22;2.93;;;1.00;;
8881;SDS011;4477;48.736;9.176;2023-03-14T05:14:50;4.60;;;1.00;;
8881;SDS011;4477;48.736;9.176;2023-03-14T05:17:17;3.93;;;1.20;;
8881;SDS011;4477;48.736;9.176;2023-03-14T05:19:45;2.97;;;0.90;;
8881;SDS011;4477;48.736;9.176;2023-03-14T05:22:12;3.67;;;1.03;;
8881;SDS011;4477;48.736;9.176;2023-03-14T05:24:40;4.20;;;0.97;;
8881;SDS011;4477;48.736;9.176;2023-03-14T05:27:07;2.97;;;0.90;;
8881;SDS011;4477;48.736;9.176;2023-03-14T05:29:34;1.67;;;0.90;;
8881;SDS011;4477;48.736;9.176;2023-03-14T05:32:01;5.40;;;1.37;;
8881;SDS011;4477;48.736;9.176;2023-03-14T05:34:28;2.10;;;1.17;;
8881;SDS011;4477;48.736;9.176;2023-03-14T05:36:57;4.30;;;0.97;;
8881;SDS011;4477;48.736;9.176;2023-03-14T05:39:24;2.83;;;0.90;;
8881;SDS011;4477;48.736;9.176;2023-03-14T05:41:51;3.37;;;0.90;;
8881;SDS011;4477;48.736;9.176;2023-03-14T05:44:20;3.40;;;0.90;;
8881;SDS011;4477;48.736;9.176;2023-03-14T05:46:48;3.80;;;0.90;;
8881;SDS011;4477;48.736;9.176;2023-03-14T05:49:15;6.50;;;1.20;;
8881;SDS011;4477;48.736;9.176;2023-03-14T05:51:42;3.60;;;0.83;;
8881;SDS011;4477;48.736;9.176;2023-03-14T05:54:10;2.33;;;0.77;;
8881;SDS011;4477;48.736;9.176;2023-03-14T05:56:38;3.33;;;0.87;;
8881;SDS011;4477;48.736;9.176;2023-03-14T05:59:05;2.07;;;0.73;;
8881;SDS011;4477;48.736;9.176;2023-03-14T06:01:34;4.73;;;1.10;;
8881;SDS011;4477;48.736;9.176;2023-03-14T06:04:01;2.40;;;1.13;;
8881;SDS011;4477;48.736;9.176;2023-03-14T06:06:28;3.80;;;1.00;;
8881;SDS011;4477;48.736;9.176;2023-03-14T06:08:55;2.17;;;0.97;;
8881;SDS011;4477;48.736;9.176;2023-03-14T06:11:24;2.70;;;0.93;;
8881;SDS011;4477;48.736;9.176;2023-03-14T06:13:51;1.60;;;1.10;;
8881;SDS011;4477;48.736;9.176;2023-03-14T06:16:18;2.03;;;0.70;;
8881;SDS011;4477;48.736;9.176;2023-03-14T06:18:45;4.37;;;1.00;;
8881;SDS011;4477;48.736;9.176;2023-03-14T06:21:17;4.07;;;1.20;;
8881;SDS011;4477;48.736;9.176;2023-03-14T06:23:44;4.90;;;1.30;;
8881;SDS011;4477;48.736;9.176;2023-03-14T06:26:11;2.57;;;1.03;;
8881;SDS011;4477;48.736;9.176;2023-03-14T06:28:40;4.60;;;1.00;;
8881;SDS011;4477;48.736;9.176;2023-03-14T06:31:10;3.37;;;0.80;;
8881;SDS011;4477;48.736;9.176;2023-03-14T06:33:37;2.73;;;1.00;;
8881;SDS011;4477;48.736;9.176;2023-03-14T06:36:04;2.70;;;0.80;;
8881;SDS011;4477;48.736;9.176;2023-03-14T06:38:31;3.07;;;0.77;;
8881;SDS011;4477;48.736;9.176;2023-03-14T06:41:02;2.23;;;0.80;;
8881;SDS011;4477;48.736;9.176;2023-03-14T06:43:29;2.00;;;0.70;;
8881;SDS011;4477;48.736;9.176;2023-03-14T06:45:58;4.03;;;0.80;;
8881;SDS011;4477;48.736;9.176;2023-03-14T06:48:25;2.90;;;0.90;;
8881;SDS011;4477;48.736;9.176;2023-03-14T06:50:52;2.33;;;0.90;;
8881;SDS011;4477;48.736;9.176;2023-03-14T06:53:19;2.57;;;0.77;;
8881;SDS011;4477;48.736;9.176;2023-03-14T06:55:46;5.20;;;1.10;;
8881;SDS011;4477;48.736;9.176;2023-03-14T06:58:13;2.47;;;0.87;;
8881;SDS011;4477;48.736;9.176;2023-03-14T07:00:40;1.47;;;0.80;;
8881;SDS011;4477;48.736;9.176;2023-03-14T07:03:09;2.60;;;0.73;;
8881;SDS011;4477;48.736;9.176;2023-03-14T07:05:36;2.53;;;0.73;;
8881;SDS011;4477;48.736;9.176;2023-03-14T07:08:05;1.60;;;0.70;;
8881;SDS011;4477;48.736;9.176;2023-03-14T07:10:32;2.37;;;0.70;;
8881;SDS011;4477;48.736;9.176;2023-03-14T07:13:00;1.67;;;0.83;;
8881;SDS011;4477;48.736;9.176;2023-03-14T07:15:28;0.87;;;0.50;;
8881;SDS011;4477;48.736;9.176;2023-03-14T07:17:55;4.67;;;0.67;;
8881;SDS011;4477;48.736;9.176;2023-03-14T07:20:23;1.50;;;0.60;;
8881;SDS011;4477;48.736;9.176;2023-03-14T07:22:50;0.77;;;0.50;;
8881;SDS011;4477;48.736;9.176;2023-03-14T07:25:18;1.53;;;0.60;;
8881;SDS011;4477;48.736;9.176;2023-03-14T07:27:45;1.63;;;0.60;;
8881;SDS011;4477;48.736;9.176;2023-03-14T07:30:13;0.60;;;0.40;;
8881;SDS011;4477;48.736;9.176;2023-03-14T07:32:40;1.57;;;0.50;;
8881;SDS011;4477;48.736;9.176;2023-03-14T07:35:08;1.43;;;0.63;;
8881;SDS011;4477;48.736;9.176;2023-03-14T07:37:36;1.43;;;0.60;;
8881;SDS011;4477;48.736;9.176;2023-03-14T07:40:04;2.30;;;0.70;;
8881;SDS011;4477;48.736;9.176;2023-03-14T07:42:32;0.60;;;0.43;;
8881;SDS011;4477;48.736;9.176;2023-03-14T07:44:59;1.27;;;0.70;;
8881;SDS011;4477;48.736;9.176;2023-03-14T07:47:26;3.03;;;0.60;;
8881;SDS011;4477;48.736;9.176;2023-03-14T07:49:53;1.43;;;0.40;;
8881;SDS011;4477;48.736;9.176;2023-03-14T07:52:20;2.37;;;0.50;;
8881;SDS011;4477;48.736;9.176;2023-03-14T07:54:50;2.40;;;0.53;;
8881;SDS011;4477;48.736;9.176;2023-03-14T07:57:17;2.47;;;0.60;;
8881;SDS011;4477;48.736;9.176;2023-03-14T07:59:44;1.33;;;0.50;;
8881;SDS011;4477;48.736;9.176;2023-03-14T08:02:13;1.00;;;0.40;;
8881;SDS011;4477;48.736;9.176;2023-03-14T08:04:40;2.17;;;0.50;;
8881;SDS011;4477;48.736;9.176;2023-03-14T08:07:07;1.07;;;0.70;;
8881;SDS011;4477;48.736;9.176;2023-03-14T08:09:34;2.17;;;0.47;;
8881;SDS011;4477;48.736;9.176;2023-03-14T08:12:03;0.63;;;0.40;;
8881;SDS011;4477;48.736;9.176;2023-03-14T08:14:30;1.73;;;0.60;;
8881;SDS011;4477;48.736;9.176;2023-03-14T08:16:57;2.60;;;0.60;;
8881;SDS011;4477;48.736;9.176;2023-03-14T08:19:24;2.40;;;0.73;;
8881;SDS011;4477;48.736;9.176;2023-03-14T08:21:51;2.17;;;0.67;;
8881;SDS011;4477;48.736;9.176;2023-03-14T08:24:19;2.53;;;0.70;;
8881;SDS011;4477;48.736;9.176;2023-03-14T08:26:46;2.23;;;0.40;;
8881;SDS011;4477;48.736;9.176;2023-03-14T08:29:14;3.10;;;0.57;;
8881;SDS011;4477;48.736;9.176;2023-03-14T08:31:42;1.23;;;0.60;;
8881;SDS011;4477;48.736;9.176;2023-03-14T08:34:09;1.57;;;0.60;;
8881;SDS011;4477;48.736;9.176;2023-03-14T08:36:36;0.53;;;0.40;;
8881;SDS011;4477;48.736;9.176;2023-03-14T08:39:03;1.33;;;0.40;;
8881;SDS011;4477;48.736;9.176;2023-03-14T08:41:32;0.90;;;0.30;;
8881;SDS011;4477;48.736;9.176;2023-03-14T08:44:05;0.70;;;0.40;;
8881;SDS011;4477;48.736;9.176;2023-03-14T08:46:33;0.60;;;0.30;;
8881;SDS011;4477;48.736;9.176;2023-03-14T08:49:00;0.53;;;0.20;;
8881;SDS011;4477;48.736;9.176;2023-03-14T08:51:28;0.97;;;0.30;;
8881;SDS011;4477;48.736;9.176;2023-03-14T08:53:55;1.33;;;0.40;;
8881;SDS011;4477;48.736;9.176;2023-03-14T08:56:22;2.43;;;0.60;;
8881;SDS011;4477;48.736;9.176;2023-03-14T08:58:49;0.80;;;0.30;;
8881;SDS011;4477;48.736;9.176;2023-03-14T09:01:16;3.37;;;0.50;;
8881;SDS011;4477;48.736;9.176;2023-03-14T09:03:45;0.87;;;0.60;;
8881;SDS011;4477;48.736;9.176;2023-03-14T09:06:14;0.60;;;0.40;;
8881;SDS011;4477;48.736;9.176;2023-03-14T09:08:42;1.07;;;0.40;;
8881;SDS011;4477;48.736;9.176;2023-03-14T09:11:10;0.87;;;0.40;;
8881;SDS011;4477;48.736;9.176;2023-03-14T09:13:37;2.40;;;0.40;;
8881;SDS011;4477;48.736;9.176;2023-03-14T09:16:05;1.40;;;0.77;;
8881;SDS011;4477;48.736;9.176;2023-03-14T09:18:32;0.77;;;0.27;;
8881;SDS011;4477;48.736;9.176;2023-03-14T09:21:00;1.30;;;0.40;;
8881;SDS011;4477;48.736;9.176;2023-03-14T09:23:28;0.90;;;0.37;;
8881;SDS011;4477;48.736;9.176;2023-03-14T09:25:55;0.97;;;0.40;;
8881;SDS011;4477;48.736;9.176;2023-03-14T09:28:22;1.27;;;0.50;;
8881;SDS011;4477;48.736;9.176;2023-03-14T09:30:49;1.73;;;0.50;;
8881;SDS011;4477;48.736;9.176;2023-03-14T09:33:16;1.03;;;0.43;;
8881;SDS011;4477;48.736;9.176;2023-03-14T09:35:43;1.37;;;0.40;;
8881;SDS011;4477;48.736;9.176;2023-03-14T09:38:12;2.10;;;0.40;;
8881;SDS011;4477;48.736;9.176;2023-03-14T09:40:40;1.23;;;0.53;;
8881;SDS011;4477;48.736;9.176;2023-03-14T09:43:08;2.33;;;0.60;;
8881;SDS011;4477;48.736;9.176;2023-03-14T09:45:37;1.07;;;0.50;;
8881;SDS011;4477;48.736;9.176;2023-03-14T09:48:05;1.20;;;0.67;;
8881;SDS011;4477;48.736;9.176;2023-03-14T09:50:37;0.60;;;0.50;;
8881;SDS011;4477;48.736;9.176;2023-03-14T09:53:07;0.67;;;0.57;;
8881;SDS011;4477;48.736;9.176;2023-03-14T09:55:37;0.53;;;0.30;;
8881;SDS011;4477;48.736;9.176;2023-03-14T09:58:08;0.80;;;0.30;;
8881;SDS011;4477;48.736;9.176;2023-03-14T10:00:36;5.80;;;0.37;;
8881;SDS011;4477;48.736;9.176;2023-03-14T10:03:12;2.20;;;0.40;;
8881;SDS011;4477;48.736;9.176;2023-03-14T10:05:42;0.33;;;0.30;;
8881;SDS011;4477;48.736;9.176;2023-03-14T10:08:09;1.50;;;0.30;;
8881;SDS011;4477;48.736;9.176;2023-03-14T10:10:38;0.97;;;0.40;;
8881;SDS011;4477;48.736;9.176;2023-03-14T10:13:10;0.37;;;0.27;;
8881;SDS011;4477;48.736;9.176;2023-03-14T10:15:40;0.53;;;0.30;;
8881;SDS011;4477;48.736;9.176;2023-03-14T10:18:09;1.37;;;0.50;;
8881;SDS011;4477;48.736;9.176;2023-03-14T10:20:38;1.57;;;0.33;;
8881;SDS011;4477;48.736;9.176;2023-03-14T10:23:07;1.40;;;0.40;;
8881;SDS011;4477;48.736;9.176;2023-03-14T10:25:46;0.97;;;0.20;;
8881;SDS011;4477;48.736;9.176;2023-03-14T10:28:25;0.73;;;0.40;;
8881;SDS011;4477;48.736;9.176;2023-03-14T10:30:53;0.90;;;0.33;;
8881;SDS011;4477;48.736;9.176;2023-03-14T10:33:22;1.90;;;0.40;;
8881;SDS011;4477;48.736;9.176;2023-03-14T10:35:52;1.20;;;0.40;;
8881;SDS011;4477;48.736;9.176;2023-03-14T10:38:22;0.70;;;0.30;;
8881;SDS011;4477;48.736;9.176;2023-03-14T10:40:52;0.57;;;0.23;;
8881;SDS011;4477;48.736;9.176;2023-03-14T10:43:21;2.23;;;0.30;;
8881;SDS011;4477;48.736;9.176;2023-03-14T10:45:52;2.07;;;0.30;;
8881;SDS011;4477;48.736;9.176;2023-03-14T10:48:23;0.90;;;0.30;;
8881;SDS011;4477;48.736;9.176;2023-03-14T10:50:54;0.23;;;0.20;;
8881;SDS011;4477;48.736;9.176;2023-03-14T10:53:22;1.23;;;0.30;;
8881;SDS011;4477;48.736;9.176;2023-03-14T10:55:51;0.40;;;0.30;;
8881;SDS011;4477;48.736;9.176;2023-03-14T10:58:23;0.40;;;0.20;;
8881;SDS011;4477;48.736;9.176;2023-03-14T11:00:52;0.93;;;0.50;;
8881;SDS011;4477;48.736;9.176;2023-03-14T11:03:20;0.70;;;0.27;;
8881;SDS011;4477;48.736;9.176;2023-03-14T11:05:49;1.20;;;0.30;;
8881;SDS011;4477;48.736;9.176;2023-03-14T11:08:20;0.50;;;0.30;;
8881;SDS011;4477;48.736;9.176;2023-03-14T11:10:52;0.30;;;0.30;;
8881;SDS011;4477;48.736;9.176;2023-03-14T11:13:22;0.63;;;0.40;;
8881;SDS011;4477;48.736;9.176;2023-03-14T11:15:53;1.03;;;0.40;;
8881;SDS011;4477;48.736;9.176;2023-03-14T11:21:11;0.33;;;0.30;;
8881;SDS011;4477;48.736;9.176;2023-03-14T11:23:41;0.83;;;0.63;;
8881;SDS011;4477;48.736;9.176;2023-03-14T11:26:13;0.50;;;0.40;;
8881;SDS011;4477;48.736;9.176;2023-03-14T11:28:44;1.40;;;0.40;;
8881;SDS011;4477;48.736;9.176;2023-03-14T11:31:15;1.47;;;0.60;;
8881;SDS011;4477;48.736;9.176;2023-03-14T11:33:46;0.40;;;0.30;;
8881;SDS011;4477;48.736;9.176;2023-03-14T11:36:15;1.93;;;0.90;;
8881;SDS011;4477;48.736;9.176;2023-03-14T11:38:46;0.40;;;0.30;;
8881;SDS011;4477;48.736;9.176;2023-03-14T11:41:16;0.50;;;0.50;;
8881;SDS011;4477;48.736;9.176;2023-03-14T11:43:46;2.10;;;0.40;;
8881;SDS011;4477;48.736;9.176;2023-03-14T11:46:14;0.60;;;0.30;;
8881;SDS011;4477;48.736;9.176;2023-03-14T11:48:44;0.63;;;0.40;;
8881;SDS011;4477;48.736;9.176;2023-03-14T11:51:17;0.50;;;0.33;;
8881;SDS011;4477;48.736;9.176;2023-03-14T11:53:49;0.50;;;0.30;;
8881;SDS011;4477;48.736;9.176;2023-03-14T11:56:20;0.90;;;0.30;;
8881;SDS011;4477;48.736;9.176;2023-03-14T11:58:55;0.63;;;0.37;;
8881;SDS011;4477;48.736;9.176;2023-03-14T12:01:23;0.40;;;0.30;;
8881;SDS011;4477;48.736;9.176;2023-03-14T12:03:54;0.40;;;0.20;;
8881;SDS011;4477;48.736;9.176;2023-03-14T12:06:25;1.60;;;0.30;;
8881;SDS011;4477;48.736;9.176;2023-03-14T12:08:53;0.30;;;0.30;;
8881;SDS011;4477;48.736;9.176;2023-03-14T12:11:31;0.80;;;0.40;;
8881;SDS011;4477;48.736;9.176;2023-03-14T12:13:59;0.87;;;0.40;;
8881;SDS011;4477;48.736;9.176;2023-03-14T12:16:30;0.60;;;0.50;;
8881;SDS011;4477;48.736;9.176;2023-03-14T12:18:57;0.90;;;0.37;;
8881;SDS011;4477;48.736;9.176;2023-03-14T12:21:43;0.40;;;0.30;;
8881;SDS011;4477;48.736;9.176;2023-03-14T12:24:15;0.73;;;0.20;;
8881;SDS011;4477;48.736;9.176;2023-03-14T12:26:49;0.30;;;0.30;;
8881;SDS011;4477;48.736;9.176;2023-03-14T12:29:16;0.30;;;0.20;;
8881;SDS011;4477;48.736;9.176;2023-03-14T12:31:44;0.80;;;0.20;;
8881;SDS011;4477;48.736;9.176;2023-03-14T12:34:25;0.40;;;0.30;;
8881;SDS011;4477;48.736;9.176;2023-03-14T12:39:38;0.47;;;0.27;;
8881;SDS011;4477;48.736;9.176;2023-03-14T12:42:10;0.77;;;0.50;;
8881;SDS011;4477;48.736;9.176;2023-03-14T12:44:42;0.80;;;0.50;;
8881;SDS011;4477;48.736;9.176;2023-03-14T12:50:07;0.90;;;0.50;;
8881;SDS011;4477;48.736;9.176;2023-03-14T12:52:36;1.60;;;0.60;;
8881;SDS011;4477;48.736;9.176;2023-03-14T12:55:07;0.90;;;0.50;;
8881;SDS011;4477;48.736;9.176;2023-03-14T12:57:39;0.73;;;0.53;;
8881;SDS011;4477;48.736;9.176;2023-03-14T13:00:16;0.57;;;0.40;;
8881;SDS011;4477;48.736;9.176;2023-03-14T13:02:44;0.50;;;0.50;;
8881;SDS011;4477;48.736;9.176;2023-03-14T13:05:13;1.47;;;0.60;;
8881;SDS011;4477;48.736;9.176;2023-03-14T13:10:39;0.80;;;0.53;;
8881;SDS011;4477;48.736;9.176;2023-03-14T13:13:19;1.50;;;0.80;;
8881;SDS011;4477;48.736;9.176;2023-03-14T13:15:47;1.60;;;0.60;;
8881;SDS011;4477;48.736;9.176;2023-03-14T13:18:16;0.87;;;0.60;;
8881;SDS011;4477;48.736;9.176;2023-03-14T13:20:44;1.83;;;0.67;;
8881;SDS011;4477;48.736;9.176;2023-03-14T13:23:19;3.20;;;0.80;;
8881;SDS011;4477;48.736;9.176;2023-03-14T13:25:46;1.20;;;0.77;;
8881;SDS011;4477;48.736;9.176;2023-03-14T13:28:14;1.70;;;0.53;;
8881;SDS011;4477;48.736;9.176;2023-03-14T13:30:46;2.27;;;0.70;;
8881;SDS011;4477;48.736;9.176;2023-03-14T13:33:14;2.67;;;0.70;;
8881;SDS011;4477;48.736;9.176;2023-03-14T13:35:42;3.13;;;0.60;;
8881;SDS011;4477;48.736;9.176;2023-03-14T13:38:15;1.40;;;0.50;;
8881;SDS011;4477;48.736;9.176;2023-03-14T13:40:43;1.00;;;0.63;;
8881;SDS011;4477;48.736;9.176;2023-03-14T13:43:12;2.00;;;0.70;;
8881;SDS011;4477;48.736;9.176;2023-03-14T13:45:45;1.73;;;0.63;;
8881;SDS011;4477;48.736;9.176;2023-03-14T13:48:14;2.27;;;0.60;;
8881;SDS011;4477;48.736;9.176;2023-03-14T13:53:26;0.90;;;0.50;;
8881;SDS011;4477;48.736;9.176;2023-03-14T13:55:54;1.67;;;0.73;;
8881;SDS011;4477;48.736;9.176;2023-03-14T13:58:22;2.53;;;0.70;;
8881;SDS011;4477;48.736;9.176;2023-03-14T14:00:58;2.17;;;0.70;;
8881;SDS011;4477;48.736;9.176;2023-03-14T14:03:26;2.63;;;0.97;;
8881;SDS011;4477;48.736;9.176;2023-03-14T14:05:54;2.00;;;0.60;;
8881;SDS011;4477;48.736;9.176;2023-03-14T14:08:22;2.47;;;0.70;;
8881;SDS011;4477;48.736;9.176;2023-03-14T14:10:49;5.53;;;3.77;;
8881;SDS011;4477;48.736;9.176;2023-03-14T14:13:19;3.17;;;0.70;;
8881;SDS011;4477;48.736;9.176;2023-03-14T14:15:48;3.53;;;0.80;;
8881;SDS011;4477;48.736;9.176;2023-03-14T14:18:18;1.87;;;0.80;;
8881;SDS011;4477;48.736;9.176;2023-03-14T14:20:46;1.37;;;0.67;;
8881;SDS011;4477;48.736;9.176;2023-03-14T14:23:14;3.13;;;0.90;;
8881;SDS011;4477;48.736;9.176;2023-03-14T14:25:42;0.63;;;0.60;;
8881;SDS011;4477;48.736;9.176;2023-03-14T14:28:16;4.20;;;0.67;;
8881;SDS011;4477;48.736;9.176;2023-03-14T14:30:44;6.60;;;0.80;;
8881;SDS011;4477;48.736;9.176;2023-03-14T14:33:12;1.43;;;0.83;;
8881;SDS011;4477;48.736;9.176;2023-03-14T14:35:50;2.37;;;1.20;;
8881;SDS011;4477;48.736;9.176;2023-03-14T14:38:17;3.20;;;1.00;;
8881;SDS011;4477;48.736;9.176;2023-03-14T14:40:46;4.80;;;1.20;;
8881;SDS011;4477;48.736;9.176;2023-03-14T14:43:15;1.63;;;0.50;;
8881;SDS011;4477;48.736;9.176;2023-03-14T14:45:43;2.53;;;0.70;;
8881;SDS011;4477;48.736;9.176;2023-03-14T14:48:13;1.10;;;0.70;;
8881;SDS011;4477;48.736;9.176;2023-03-14T14:50:49;3.37;;;0.73;;
8881;SDS011;4477;48.736;9.176;2023-03-14T14:53:21;3.33;;;1.20;;
8881;SDS011;4477;48.736;9.176;2023-03-14T14:55:50;3.17;;;1.07;;
8881;SDS011;4477;48.736;9.176;2023-03-14T14:58:18;3.33;;;1.30;;
8881;SDS011;4477;48.736;9.176;2023-03-14T15:00:50;2.80;;;1.00;;
8881;SDS011;4477;48.736;9.176;2023-03-14T15:03:19;3.87;;;1.47;;
8881;SDS011;4477;48.736;9.176;2023-03-14T15:05:46;4.43;;;1.20;;
8881;SDS011;4477;48.736;9.176;2023-03-14T15:08:14;3.23;;;1.30;;
8881;SDS011;4477;48.736;9.176;2023-03-14T15:10:42;4.70;;;1.27;;
8881;SDS011;4477;48.736;9.176;2023-03-14T15:13:09;2.03;;;0.90;;
8881;SDS011;4477;48.736;9.176;2023-03-14T15:15:36;2.90;;;0.90;;
8881;SDS011;4477;48.736;9.176;2023-03-14T15:18:08;1.57;;;0.80;;
8881;SDS011;4477;48.736;9.176;2023-03-14T15:20:38;2.97;;;1.00;;
8881;SDS011;4477;48.736;9.176;2023-03-14T15:23:07;3.50;;;0.60;;
8881;SDS011;4477;48.736;9.176;2023-03-14T15:25:39;2.67;;;0.97;;
8881;SDS011;4477;48.736;9.176;2023-03-14T15:28:17;2.40;;;1.00;;
8881;SDS011;4477;48.736;9.176;2023-03-14T15:30:45;4.30;;;1.23;;
8881;SDS011;4477;48.736;9.176;2023-03-14T15:33:12;2.83;;;0.93;;
8881;SDS011;4477;48.736;9.176;2023-03-14T15:35:40;1.53;;;0.80;;
8881;SDS011;4477;48.736;9.176;2023-03-14T15:38:11;2.67;;;0.87;;